Time;durP1;ratioP1;P1;durP2;ratioP2;P2;SDS_P1;SDS_P2;PMS_P1;PMS_P2;Temp;Humidity;BMP_temperature;BMP_pressure;BME280_temperature;BME280_humidity;BME280_pressure;Samples;Min_cycle;Max_cycle;Signal;HPM_P1;HPM_P2
2022/11/07 00:00:15;;;;;;;;;;;;;11.20;97742.40;;;;108991;1269;41622;-56
2022/11/07 00:02:59;;;;;;;;;;;;;11.20;97741.40;;;;108887;1269;42402;-56
2022/11/07 00:05:28;;;;;;;;;;;;;11.18;97744.80;;;;108968;1269;41148;-55
2022/11/07 00:07:58;;;;;;;;;;;;;11.10;97749.40;;;;108934;1258;41953;-56
2022/11/07 00:10:27;;;;;;;;;;;;;11.10;97757.20;;;;108980;1269;41745;-56
2022/11/07 00:12:56;;;;;;;;;;;;;11.00;97754.00;;;;108955;1269;41686;-56
2022/11/07 00:15:25;;;;;;;;;;;;;11.00;97754.20;;;;108973;1269;41140;-56
2022/11/07 00:17:56;;;;;;;;;;;;;10.90;97758.20;;;;108982;1266;41448;-56
2022/11/07 00:20:25;;;;;;;;;;;;;10.80;97753.40;;;;108956;1269;41197;-56
2022/11/07 00:22:54;;;;;;;;;;;;;10.80;97755.00;;;;108995;1266;41695;-57
2022/11/07 00:25:23;;;;;;;;;;;;;10.70;97751.80;;;;108972;1268;41236;-56
2022/11/07 00:27:53;;;;;;;;;;;;;10.70;97753.80;;;;108950;1268;41141;-56
2022/11/07 00:30:22;;;;;;;;;;;;;10.60;97747.40;;;;108973;1269;41324;-56
2022/11/07 00:32:51;;;;;;;;;;;;;10.60;97753.60;;;;109016;1269;41312;-56
2022/11/07 00:35:26;;;;;;;;;;;;;10.58;97749.80;;;;108973;1269;41403;-57
2022/11/07 00:37:56;;;;;;;;;;;;;10.50;97746.60;;;;108982;1268;41160;-56
2022/11/07 00:40:25;;;;;;;;;;;;;10.40;97749.20;;;;109007;1269;41144;-56
2022/11/07 00:42:54;;;;;;;;;;;;;10.40;97745.80;;;;108934;1269;41224;-56
2022/11/07 00:45:23;;;;;;;;;;;;;10.38;97744.00;;;;108960;1269;41475;-57
2022/11/07 00:47:53;;;;;;;;;;;;;10.30;97750.00;;;;108916;1269;41203;-57
2022/11/07 00:50:22;;;;;;;;;;;;;10.30;97753.00;;;;108972;1267;42096;-57
2022/11/07 00:52:55;;;;;;;;;;;;;10.30;97753.80;;;;108939;1268;41155;-57
2022/11/07 00:55:24;;;;;;;;;;;;;10.20;97752.40;;;;108865;1269;41890;-56
2022/11/07 00:57:54;;;;;;;;;;;;;10.20;97752.20;;;;108973;1269;41844;-56
2022/11/07 01:00:26;;;;;;;;;;;;;10.20;97752.00;;;;108813;1269;41634;-55
2022/11/07 01:05:54;;;;;;;;;;;;;10.10;97751.40;;;;108857;1269;41233;-58
2022/11/07 01:08:23;;;;;;;;;;;;;10.10;97748.40;;;;108906;1269;42095;-57
2022/11/07 01:10:53;;;;;;;;;;;;;10.10;97751.00;;;;108951;1266;41155;-57
2022/11/07 01:13:23;;;;;;;;;;;;;10.00;97752.40;;;;108862;1269;42143;-57
2022/11/07 01:15:53;;;;;;;;;;;;;10.00;97751.00;;;;108830;1269;41159;-58
2022/11/07 01:18:22;;;;;;;;;;;;;10.00;97751.00;;;;108904;1262;41247;-57
2022/11/07 01:20:51;;;;;;;;;;;;;9.92;97749.60;;;;108998;1269;41248;-57
2022/11/07 01:23:21;;;;;;;;;;;;;9.90;97751.20;;;;108968;1268;41228;-57
2022/11/07 01:25:51;;;;;;;;;;;;;9.88;97747.80;;;;108895;1269;41136;-57
2022/11/07 01:28:21;;;;;;;;;;;;;9.80;97750.20;;;;108958;1269;41145;-57
2022/11/07 01:30:50;;;;;;;;;;;;;9.80;97747.60;;;;108922;1269;41229;-56
2022/11/07 01:33:20;;;;;;;;;;;;;9.70;97749.20;;;;108939;1269;41173;-57
2022/11/07 01:35:49;;;;;;;;;;;;;9.70;97747.40;;;;108658;1271;41145;-57
2022/11/07 01:38:19;;;;;;;;;;;;;9.70;97748.00;;;;108843;1269;41172;-57
2022/11/07 01:43:45;;;;;;;;;;;;;9.60;97746.80;;;;108875;1269;41146;-57
2022/11/07 01:46:15;;;;;;;;;;;;;9.60;97743.80;;;;108946;1269;41616;-57
2022/11/07 01:48:52;;;;;;;;;;;;;9.60;97743.40;;;;108932;1268;41147;-57
2022/11/07 01:51:23;;;;;;;;;;;;;9.52;97741.60;;;;108876;1269;41623;-57
2022/11/07 01:53:54;;;;;;;;;;;;;9.50;97740.20;;;;108886;1269;41152;-57
2022/11/07 01:56:25;;;;;;;;;;;;;9.50;97741.20;;;;108837;1269;41602;-57
2022/11/07 01:58:55;;;;;;;;;;;;;9.40;97744.40;;;;108883;1269;41596;-57
2022/11/07 02:01:24;;;;;;;;;;;;;9.40;97741.80;;;;108843;1269;41139;-58
2022/11/07 02:03:53;;;;;;;;;;;;;9.40;97748.80;;;;108855;1269;42405;-57
2022/11/07 02:06:28;;;;;;;;;;;;;9.40;97747.60;;;;108926;1269;41658;-58
2022/11/07 02:08:58;;;;;;;;;;;;;9.40;97744.60;;;;108978;1269;41906;-57
2022/11/07 02:11:27;;;;;;;;;;;;;9.40;97748.80;;;;108889;1269;41174;-55
2022/11/07 02:13:57;;;;;;;;;;;;;9.40;97748.60;;;;108874;1269;41683;-55
2022/11/07 02:16:27;;;;;;;;;;;;;9.30;97746.00;;;;108872;1269;41247;-55
2022/11/07 02:18:56;;;;;;;;;;;;;9.30;97749.20;;;;108830;1269;41693;-56
2022/11/07 02:21:30;;;;;;;;;;;;;9.20;97754.80;;;;108984;1269;41406;-57
2022/11/07 02:24:04;;;;;;;;;;;;;9.20;97748.40;;;;108999;1269;42146;-57
2022/11/07 02:26:35;;;;;;;;;;;;;9.20;97750.00;;;;108806;1270;41150;-57
2022/11/07 02:29:07;;;;;;;;;;;;;9.10;97754.80;;;;108973;1269;41179;-57
2022/11/07 02:31:35;;;;;;;;;;;;;9.10;97754.80;;;;108963;1269;42264;-57
2022/11/07 02:34:06;;;;;;;;;;;;;9.06;97749.80;;;;108862;1269;41626;-57
2022/11/07 02:36:36;;;;;;;;;;;;;9.00;97748.40;;;;109017;1269;41141;-57
2022/11/07 02:39:05;;;;;;;;;;;;;9.00;97747.40;;;;108888;1269;41126;-56
2022/11/07 02:41:35;;;;;;;;;;;;;8.98;97746.00;;;;108728;1269;41568;-56
2022/11/07 02:44:06;;;;;;;;;;;;;8.90;97746.80;;;;108930;1269;42415;-57
2022/11/07 02:46:35;;;;;;;;;;;;;8.90;97743.40;;;;108975;1269;41193;-56
2022/11/07 02:49:05;;;;;;;;;;;;;8.80;97744.60;;;;108958;1269;41235;-57
2022/11/07 02:51:37;;;;;;;;;;;;;8.80;97746.40;;;;108857;1269;41628;-57
2022/11/07 02:54:08;;;;;;;;;;;;;8.74;97746.20;;;;108905;1269;41633;-57
2022/11/07 02:56:38;;;;;;;;;;;;;8.70;97748.80;;;;109035;1263;41170;-57
2022/11/07 02:59:08;;;;;;;;;;;;;8.70;97753.80;;;;108968;1269;41931;-57
2022/11/07 03:01:37;;;;;;;;;;;;;8.70;97751.60;;;;108925;1268;41145;-57
2022/11/07 03:04:09;;;;;;;;;;;;;8.70;97753.00;;;;108870;1269;41216;-57
2022/11/07 03:06:38;;;;;;;;;;;;;8.70;97755.00;;;;108848;1269;41153;-57
2022/11/07 03:09:08;;;;;;;;;;;;;8.68;97760.60;;;;108805;1268;41375;-57
2022/11/07 03:11:38;;;;;;;;;;;;;8.60;97762.60;;;;108796;1265;42073;-57
2022/11/07 03:14:07;;;;;;;;;;;;;8.60;97771.20;;;;108863;1269;41277;-57
2022/11/07 03:16:37;;;;;;;;;;;;;8.50;97775.60;;;;108826;1268;41141;-57
2022/11/07 03:19:07;;;;;;;;;;;;;8.50;97771.80;;;;108840;1269;41624;-57
2022/11/07 03:21:37;;;;;;;;;;;;;8.50;97778.00;;;;108859;1268;42119;-57
2022/11/07 03:24:07;;;;;;;;;;;;;8.40;97773.60;;;;108830;1269;41160;-57
2022/11/07 03:26:36;;;;;;;;;;;;;8.40;97774.40;;;;108828;1269;41624;-57
2022/11/07 03:29:06;;;;;;;;;;;;;8.30;97774.20;;;;108798;1269;41921;-57
2022/11/07 03:31:36;;;;;;;;;;;;;8.30;97780.60;;;;108839;1269;41225;-57
2022/11/07 03:34:06;;;;;;;;;;;;;8.30;97773.80;;;;109042;1269;41154;-56
2022/11/07 03:36:35;;;;;;;;;;;;;8.30;97779.60;;;;108946;1269;42259;-56
2022/11/07 03:39:05;;;;;;;;;;;;;8.30;97776.00;;;;108980;1269;41147;-56
2022/11/07 03:41:34;;;;;;;;;;;;;8.30;97779.80;;;;108968;1269;41178;-57
2022/11/07 03:44:04;;;;;;;;;;;;;8.30;97780.60;;;;108952;1268;41231;-57
2022/11/07 03:46:33;;;;;;;;;;;;;8.30;97784.20;;;;109007;1260;41181;-57
2022/11/07 03:49:03;;;;;;;;;;;;;8.30;97782.20;;;;109002;1269;41223;-57
2022/11/07 03:51:33;;;;;;;;;;;;;8.30;97784.40;;;;109013;1269;41395;-57
2022/11/07 03:54:02;;;;;;;;;;;;;8.30;97782.40;;;;108986;1269;41152;-57
2022/11/07 03:56:31;;;;;;;;;;;;;8.30;97781.00;;;;108988;1269;41138;-57
2022/11/07 03:59:01;;;;;;;;;;;;;8.30;97778.40;;;;108878;1269;41159;-57
2022/11/07 04:01:30;;;;;;;;;;;;;8.30;97787.40;;;;108933;1269;41138;-57
2022/11/07 04:04:00;;;;;;;;;;;;;8.20;97784.40;;;;108995;1265;41650;-58
2022/11/07 04:06:29;;;;;;;;;;;;;8.20;97788.40;;;;108965;1269;41232;-57
2022/11/07 04:08:59;;;;;;;;;;;;;8.10;97794.40;;;;108934;1269;41158;-57
2022/11/07 04:17:18;;;;;;;;;;;;;8.10;97790.60;;;;108852;1269;41256;-57
2022/11/07 04:19:48;;;;;;;;;;;;;8.06;97793.40;;;;108813;1269;41220;-57
2022/11/07 04:22:17;;;;;;;;;;;;;8.00;97793.00;;;;108801;1270;41627;-57
2022/11/07 04:24:46;;;;;;;;;;;;;8.00;97792.00;;;;108863;1269;41599;-57
2022/11/07 04:30:22;;;;;;;;;;;;;8.00;97793.80;;;;108972;1269;41239;-56
2022/11/07 04:32:53;;;;;;;;;;;;;8.00;97793.20;;;;108989;1269;41322;-57
2022/11/07 04:35:23;;;;;;;;;;;;;8.00;97793.20;;;;108977;1269;41173;-57
2022/11/07 04:37:52;;;;;;;;;;;;;8.00;97797.60;;;;108984;1269;42368;-57
2022/11/07 04:40:22;;;;;;;;;;;;;8.00;97795.20;;;;109003;1269;41985;-57
2022/11/07 04:42:51;;;;;;;;;;;;;8.00;97797.20;;;;108989;1269;42185;-57
2022/11/07 04:45:20;;;;;;;;;;;;;7.90;97793.60;;;;108863;1269;41622;-57
2022/11/07 04:47:49;;;;;;;;;;;;;7.90;97789.40;;;;108950;1269;41193;-59
2022/11/07 04:50:19;;;;;;;;;;;;;7.90;97792.80;;;;108990;1262;41197;-57
2022/11/07 04:52:47;;;;;;;;;;;;;7.90;97795.80;;;;108947;1267;42224;-57
2022/11/07 04:55:21;;;;;;;;;;;;;7.90;97799.60;;;;108859;1260;41182;-56
2022/11/07 04:57:50;;;;;;;;;;;;;7.82;97800.00;;;;108848;1269;41248;-57
2022/11/07 05:00:19;;;;;;;;;;;;;7.82;97803.60;;;;109001;1269;41225;-57
2022/11/07 05:02:49;;;;;;;;;;;;;7.90;97804.00;;;;108980;1269;42024;-57
2022/11/07 05:05:17;;;;;;;;;;;;;7.90;97803.40;;;;108946;1269;41244;-57
2022/11/07 05:07:46;;;;;;;;;;;;;7.82;97802.60;;;;108920;1269;42014;-57
2022/11/07 05:10:19;;;;;;;;;;;;;7.80;97801.40;;;;108805;1260;41137;-56
2022/11/07 05:12:48;;;;;;;;;;;;;7.80;97802.20;;;;108909;1269;41154;-57
2022/11/07 05:15:17;;;;;;;;;;;;;7.80;97806.20;;;;108944;1269;41142;-57
2022/11/07 05:17:46;;;;;;;;;;;;;7.80;97808.00;;;;108844;1266;41156;-57
2022/11/07 05:20:26;;;;;;;;;;;;;7.80;97803.60;;;;108811;1269;41154;-57
2022/11/07 05:23:11;;;;;;;;;;;;;7.80;97810.00;;;;108948;1266;41230;-57
2022/11/07 05:25:41;;;;;;;;;;;;;7.80;97808.40;;;;108884;1269;41147;-57
2022/11/07 05:28:11;;;;;;;;;;;;;7.80;97805.80;;;;108673;1269;41160;-57
2022/11/07 05:30:40;;;;;;;;;;;;;7.80;97809.60;;;;108792;1269;41246;-57
2022/11/07 05:33:10;;;;;;;;;;;;;7.80;97813.80;;;;108805;1269;42128;-57
2022/11/07 05:35:40;;;;;;;;;;;;;7.80;97810.80;;;;108779;1266;42503;-56
2022/11/07 05:38:09;;;;;;;;;;;;;7.86;97818.60;;;;108783;1269;41340;-56
2022/11/07 05:40:38;;;;;;;;;;;;;7.90;97812.60;;;;108834;1266;41622;-56
2022/11/07 05:43:09;;;;;;;;;;;;;7.90;97815.20;;;;108910;1269;41463;-56
2022/11/07 05:45:37;;;;;;;;;;;;;8.00;97813.40;;;;108962;1269;41524;-57
2022/11/07 05:48:07;;;;;;;;;;;;;8.00;97809.00;;;;108962;1269;41147;-57
2022/11/07 05:50:36;;;;;;;;;;;;;8.06;97815.40;;;;109026;1266;41488;-57
2022/11/07 05:53:05;;;;;;;;;;;;;8.10;97817.60;;;;108981;1269;41239;-56
2022/11/07 05:55:34;;;;;;;;;;;;;8.20;97817.60;;;;108982;1266;41911;-56
2022/11/07 05:58:07;;;;;;;;;;;;;8.22;97820.80;;;;109012;1265;41730;-57
2022/11/07 06:00:35;;;;;;;;;;;;;8.30;97825.60;;;;108984;1269;41154;-57
2022/11/07 06:03:04;;;;;;;;;;;;;8.40;97827.80;;;;109017;1266;41942;-57
2022/11/07 06:05:33;;;;;;;;;;;;;8.50;97830.20;;;;109038;1265;41633;-56
2022/11/07 06:08:02;;;;;;;;;;;;;8.52;97834.60;;;;108918;1269;41693;-57
2022/11/07 06:10:30;;;;;;;;;;;;;8.70;97830.80;;;;108940;1269;41165;-57
2022/11/07 06:13:01;;;;;;;;;;;;;8.80;97836.60;;;;108974;1266;41162;-58
2022/11/07 06:15:30;;;;;;;;;;;;;8.82;97844.80;;;;108906;1268;41678;-57
2022/11/07 06:18:02;;;;;;;;;;;;;8.90;97848.40;;;;108896;1269;41252;-60
2022/11/07 06:20:31;;;;;;;;;;;;;8.98;97852.60;;;;109015;1269;41470;-59
2022/11/07 06:23:02;;;;;;;;;;;;;9.00;97856.40;;;;108838;1266;41625;-59
2022/11/07 06:25:30;;;;;;;;;;;;;9.10;97857.00;;;;108999;1266;42068;-58
2022/11/07 06:27:59;;;;;;;;;;;;;9.30;97853.20;;;;108986;1262;41692;-58
2022/11/07 06:30:28;;;;;;;;;;;;;9.50;97853.40;;;;108983;1269;41613;-59
2022/11/07 06:33:01;;;;;;;;;;;;;9.70;97855.00;;;;108863;1269;41178;-59
2022/11/07 06:35:30;;;;;;;;;;;;;9.96;97856.80;;;;108810;1269;41888;-59
2022/11/07 06:38:03;;;;;;;;;;;;;10.16;97857.40;;;;108899;1269;41739;-59
2022/11/07 06:40:31;;;;;;;;;;;;;10.40;97857.80;;;;108624;1269;41557;-58
2022/11/07 06:43:10;;;;;;;;;;;;;10.58;97853.60;;;;108766;1259;41636;-58
2022/11/07 06:45:40;;;;;;;;;;;;;10.78;97860.00;;;;108808;1268;41670;-58
2022/11/07 06:48:09;;;;;;;;;;;;;11.00;97860.80;;;;108863;1269;42619;-59
2022/11/07 06:50:38;;;;;;;;;;;;;11.18;97854.80;;;;108902;1268;41216;-59
2022/11/07 06:53:07;;;;;;;;;;;;;11.36;97852.80;;;;108985;1269;41326;-58
2022/11/07 06:55:36;;;;;;;;;;;;;11.60;97852.60;;;;108807;1259;41172;-59
2022/11/07 06:58:05;;;;;;;;;;;;;11.80;97850.00;;;;108977;1265;41156;-59
2022/11/07 07:00:34;;;;;;;;;;;;;11.90;97849.20;;;;108859;1266;41616;-58
2022/11/07 07:03:03;;;;;;;;;;;;;12.00;97849.80;;;;109023;1265;41701;-59
2022/11/07 07:05:33;;;;;;;;;;;;;12.08;97854.80;;;;108868;1269;41255;-59
2022/11/07 07:08:03;;;;;;;;;;;;;12.20;97852.40;;;;109021;1269;41214;-59
2022/11/07 07:10:39;;;;;;;;;;;;;12.38;97855.40;;;;109009;1269;41152;-59
2022/11/07 07:13:08;;;;;;;;;;;;;12.60;97848.20;;;;108817;1269;41628;-59
2022/11/07 07:15:37;;;;;;;;;;;;;12.80;97842.60;;;;108764;1271;41168;-60
2022/11/07 07:18:18;;;;;;;;;;;;;13.10;97845.20;;;;108746;1267;41157;-59
2022/11/07 07:20:47;;;;;;;;;;;;;13.28;97844.80;;;;108761;1266;41917;-59
2022/11/07 07:23:17;;;;;;;;;;;;;13.60;97848.80;;;;108821;1271;41703;-59
2022/11/07 07:25:46;;;;;;;;;;;;;13.68;97842.80;;;;108963;1269;41895;-59
2022/11/07 07:28:15;;;;;;;;;;;;;13.70;97839.20;;;;108826;1260;215760;-59
2022/11/07 07:30:43;;;;;;;;;;;;;13.90;97837.40;;;;109005;1269;41144;-60
2022/11/07 07:33:17;;;;;;;;;;;;;14.12;97837.60;;;;108833;1269;41959;-57
2022/11/07 07:35:47;;;;;;;;;;;;;14.30;97837.40;;;;108785;1269;42116;-58
2022/11/07 07:38:16;;;;;;;;;;;;;14.40;97833.00;;;;108833;1264;41659;-58
2022/11/07 07:40:45;;;;;;;;;;;;;14.40;97833.00;;;;108863;1269;41155;-58
2022/11/07 07:43:13;;;;;;;;;;;;;14.50;97832.60;;;;108778;1268;41809;-57
2022/11/07 07:45:42;;;;;;;;;;;;;14.60;97830.20;;;;108878;1269;42003;-58
2022/11/07 07:48:11;;;;;;;;;;;;;14.60;97832.60;;;;108842;1269;42501;-58
2022/11/07 07:50:39;;;;;;;;;;;;;14.70;97831.40;;;;108892;1269;41509;-58
2022/11/07 07:53:08;;;;;;;;;;;;;14.88;97828.40;;;;108828;1269;41863;-58
2022/11/07 07:55:37;;;;;;;;;;;;;15.12;97824.40;;;;108825;1269;41240;-58
2022/11/07 07:58:06;;;;;;;;;;;;;15.50;97818.60;;;;108929;1269;42078;-59
2022/11/07 08:00:35;;;;;;;;;;;;;16.00;97817.80;;;;108973;1260;41141;-58
2022/11/07 08:03:08;;;;;;;;;;;;;16.52;97819.80;;;;108977;1266;41274;-59
2022/11/07 08:05:37;;;;;;;;;;;;;17.12;97813.00;;;;108984;1269;41929;-58
2022/11/07 08:08:06;;;;;;;;;;;;;17.70;97816.80;;;;108990;1269;41267;-58
2022/11/07 08:10:35;;;;;;;;;;;;;18.20;97816.00;;;;108988;1269;41231;-58
2022/11/07 08:13:11;;;;;;;;;;;;;18.50;97812.20;;;;108988;1268;41171;-59
2022/11/07 08:15:39;;;;;;;;;;;;;18.88;97805.40;;;;108983;1269;41488;-59
2022/11/07 08:18:08;;;;;;;;;;;;;19.30;97807.00;;;;108946;1269;41158;-59
2022/11/07 08:20:37;;;;;;;;;;;;;19.40;97808.00;;;;108956;1269;41833;-59
2022/11/07 08:23:06;;;;;;;;;;;;;19.10;97799.40;;;;108966;1266;41653;-63
2022/11/07 08:25:42;;;;;;;;;;;;;19.10;97805.60;;;;108997;1269;41196;-63
2022/11/07 08:28:11;;;;;;;;;;;;;19.00;97806.40;;;;108998;1269;41940;-62
2022/11/07 08:30:40;;;;;;;;;;;;;18.96;97807.40;;;;109013;1262;41185;-63
2022/11/07 08:33:08;;;;;;;;;;;;;19.00;97809.00;;;;108768;1269;41623;-63
2022/11/07 08:35:37;;;;;;;;;;;;;19.00;97805.00;;;;108800;1271;41672;-63
2022/11/07 08:38:10;;;;;;;;;;;;;19.20;97808.80;;;;108776;1269;41158;-63
2022/11/07 08:40:38;;;;;;;;;;;;;19.30;97805.00;;;;108796;1269;41134;-63
2022/11/07 08:43:07;;;;;;;;;;;;;19.40;97806.80;;;;108790;1259;41165;-64
2022/11/07 08:45:36;;;;;;;;;;;;;19.76;97799.40;;;;108764;1269;42140;-63
2022/11/07 08:48:05;;;;;;;;;;;;;20.24;97798.80;;;;108784;1269;41953;-64
2022/11/07 08:50:33;;;;;;;;;;;;;20.76;97800.20;;;;108801;1266;41161;-64
2022/11/07 08:53:02;;;;;;;;;;;;;21.06;97797.60;;;;108811;1269;42426;-63
2022/11/07 08:55:31;;;;;;;;;;;;;21.30;97801.20;;;;108783;1266;41168;-65
2022/11/07 08:58:00;;;;;;;;;;;;;21.38;97801.60;;;;108780;1265;41227;-64
2022/11/07 09:00:29;;;;;;;;;;;;;21.40;97800.00;;;;108815;1269;41149;-64
2022/11/07 09:03:02;;;;;;;;;;;;;21.68;97801.00;;;;108964;1269;41934;-64
2022/11/07 09:05:51;;;;;;;;;;;;;21.60;97793.40;;;;108996;1267;41372;-64
2022/11/07 09:08:19;;;;;;;;;;;;;21.70;97796.60;;;;109019;1266;41152;-64
2022/11/07 09:10:48;;;;;;;;;;;;;21.94;97798.00;;;;108996;1269;42345;-64
2022/11/07 09:13:17;;;;;;;;;;;;;22.10;97797.20;;;;108802;1269;41167;-64
2022/11/07 09:15:46;;;;;;;;;;;;;22.16;97797.20;;;;108792;1269;42098;-64
2022/11/07 09:18:19;;;;;;;;;;;;;22.12;97799.20;;;;108921;1269;41779;-64
2022/11/07 09:20:47;;;;;;;;;;;;;22.02;97796.60;;;;108966;1266;41265;-64
2022/11/07 09:23:16;;;;;;;;;;;;;22.22;97797.40;;;;108976;1269;41620;-64
2022/11/07 09:25:45;;;;;;;;;;;;;22.48;97787.00;;;;108801;1269;41150;-64
2022/11/07 09:28:14;;;;;;;;;;;;;22.78;97789.40;;;;108770;1270;41143;-64
2022/11/07 09:30:43;;;;;;;;;;;;;23.10;97783.80;;;;108789;1266;41237;-64
2022/11/07 09:33:12;;;;;;;;;;;;;23.36;97776.60;;;;108757;1266;41183;-65
2022/11/07 09:35:41;;;;;;;;;;;;;23.60;97774.80;;;;108756;1266;41705;-64
2022/11/07 09:38:10;;;;;;;;;;;;;23.70;97769.80;;;;108886;1269;41156;-65
2022/11/07 09:40:45;;;;;;;;;;;;;23.94;97776.00;;;;109016;1266;41142;-64
2022/11/07 09:43:33;;;;;;;;;;;;;24.36;97773.40;;;;108827;1266;42055;-65
2022/11/07 09:46:01;;;;;;;;;;;;;25.06;97771.20;;;;108860;1266;41243;-65
2022/11/07 09:48:32;;;;;;;;;;;;;25.68;97769.20;;;;108959;1266;41693;-65
2022/11/07 09:51:01;;;;;;;;;;;;;26.12;97768.20;;;;108989;1269;42753;-65
2022/11/07 09:53:30;;;;;;;;;;;;;26.56;97767.40;;;;108908;1266;41392;-64
2022/11/07 09:56:00;;;;;;;;;;;;;27.00;97760.40;;;;109010;1269;41246;-64
2022/11/07 09:58:29;;;;;;;;;;;;;27.28;97761.20;;;;108903;1271;41324;-65
2022/11/07 10:01:02;;;;;;;;;;;;;27.60;97763.40;;;;108956;1269;41272;-65
2022/11/07 10:03:32;;;;;;;;;;;;;27.90;97757.20;;;;108930;1269;41795;-63
2022/11/07 10:06:04;;;;;;;;;;;;;28.20;97761.20;;;;108862;1265;41245;-66
2022/11/07 10:08:37;;;;;;;;;;;;;28.60;97761.40;;;;109028;1269;41223;-63
2022/11/07 10:11:08;;;;;;;;;;;;;28.80;97753.20;;;;108693;1269;41232;-62
2022/11/07 10:13:42;;;;;;;;;;;;;28.90;97748.40;;;;108850;1269;41698;-64
2022/11/07 10:16:14;;;;;;;;;;;;;29.10;97744.80;;;;108947;1269;42964;-64
2022/11/07 10:18:54;;;;;;;;;;;;;29.36;97744.80;;;;108936;1269;41455;-64
2022/11/07 10:21:46;;;;;;;;;;;;;29.50;97742.40;;;;108992;1269;41148;-64
2022/11/07 10:24:15;;;;;;;;;;;;;29.40;97736.80;;;;108804;1270;41180;-64
2022/11/07 10:26:43;;;;;;;;;;;;;29.74;97731.80;;;;108890;1266;41220;-64
2022/11/07 10:29:13;;;;;;;;;;;;;29.86;97728.80;;;;108917;1269;41942;-63
2022/11/07 10:31:43;;;;;;;;;;;;;29.90;97722.80;;;;108939;1266;41696;-64
2022/11/07 10:34:33;;;;;;;;;;;;;30.20;97722.60;;;;108955;1269;41212;-64
2022/11/07 10:37:02;;;;;;;;;;;;;30.28;97719.80;;;;108936;1269;42099;-64
2022/11/07 10:39:31;;;;;;;;;;;;;30.48;97720.00;;;;108969;1269;41557;-63
2022/11/07 10:42:01;;;;;;;;;;;;;30.60;97712.40;;;;108991;1269;41148;-63
2022/11/07 10:44:30;;;;;;;;;;;;;31.06;97714.60;;;;108906;1265;41161;-63
2022/11/07 10:46:59;;;;;;;;;;;;;31.40;97714.20;;;;109005;1266;41136;-63
2022/11/07 10:49:29;;;;;;;;;;;;;31.68;97714.00;;;;108998;1269;41144;-64
2022/11/07 10:52:16;;;;;;;;;;;;;32.00;97713.60;;;;108947;1266;41259;-62
2022/11/07 10:54:45;;;;;;;;;;;;;32.20;97715.60;;;;108971;1268;41171;-63
2022/11/07 10:57:21;;;;;;;;;;;;;32.40;97709.60;;;;108985;1269;41932;-62
2022/11/07 10:59:50;;;;;;;;;;;;;32.50;97707.80;;;;108960;1269;41135;-63
2022/11/07 11:02:19;;;;;;;;;;;;;32.24;97708.00;;;;108902;1269;41605;-63
2022/11/07 11:04:53;;;;;;;;;;;;;32.20;97706.40;;;;108993;1269;41146;-63
2022/11/07 11:07:26;;;;;;;;;;;;;31.70;97705.20;;;;108970;1269;41619;-63
2022/11/07 11:09:56;;;;;;;;;;;;;31.50;97703.80;;;;108904;1269;42202;-63
2022/11/07 11:12:30;;;;;;;;;;;;;31.54;97703.40;;;;109008;1269;41228;-63
2022/11/07 11:15:05;;;;;;;;;;;;;31.96;97699.80;;;;108762;1269;41622;-63
2022/11/07 11:17:34;;;;;;;;;;;;;31.96;97707.00;;;;108724;1269;41142;-63
2022/11/07 11:20:03;;;;;;;;;;;;;32.20;97707.40;;;;108726;1269;42540;-63
2022/11/07 11:22:33;;;;;;;;;;;;;32.32;97699.20;;;;108790;1269;41230;-63
2022/11/07 11:25:08;;;;;;;;;;;;;32.62;97703.40;;;;108950;1270;41159;-63
2022/11/07 11:27:37;;;;;;;;;;;;;32.90;97702.20;;;;108980;1269;42053;-63
2022/11/07 11:30:07;;;;;;;;;;;;;33.00;97700.40;;;;109009;1269;41146;-63
2022/11/07 11:32:44;;;;;;;;;;;;;32.80;97700.60;;;;108980;1266;41928;-62
2022/11/07 11:35:22;;;;;;;;;;;;;32.60;97699.00;;;;109018;1267;41233;-63
2022/11/07 11:37:52;;;;;;;;;;;;;32.70;97701.80;;;;108800;1269;41926;-63
2022/11/07 11:40:21;;;;;;;;;;;;;32.96;97702.00;;;;109002;1270;41238;-63
2022/11/07 11:42:52;;;;;;;;;;;;;33.10;97703.00;;;;108982;1266;41173;-63
2022/11/07 11:45:33;;;;;;;;;;;;;33.30;97699.40;;;;108936;1266;42118;-63
2022/11/07 11:48:04;;;;;;;;;;;;;33.50;97697.00;;;;108908;1270;42406;-63
2022/11/07 11:50:35;;;;;;;;;;;;;33.26;97693.60;;;;108984;1266;41693;-62
2022/11/07 11:53:06;;;;;;;;;;;;;32.66;97699.20;;;;108963;1271;41696;-63
2022/11/07 11:55:37;;;;;;;;;;;;;32.70;97697.40;;;;108954;1270;41145;-63
2022/11/07 11:58:32;;;;;;;;;;;;;32.98;97694.80;;;;108975;1268;41616;-62
2022/11/07 12:01:19;;;;;;;;;;;;;31.78;97692.80;;;;108958;1268;41917;-63
2022/11/07 12:04:14;;;;;;;;;;;;;31.80;97691.40;;;;108937;1266;41605;-63
2022/11/07 12:06:46;;;;;;;;;;;;;31.92;97690.80;;;;108916;1271;41699;-63
2022/11/07 12:09:23;;;;;;;;;;;;;32.28;97691.40;;;;108782;1271;41235;-63
2022/11/07 12:11:55;;;;;;;;;;;;;32.84;97692.00;;;;108763;1271;41931;-63
2022/11/07 12:14:33;;;;;;;;;;;;;33.26;97686.60;;;;108873;1271;41474;-63
2022/11/07 12:17:12;;;;;;;;;;;;;33.86;97684.80;;;;108939;1265;41236;-63
2022/11/07 12:19:46;;;;;;;;;;;;;34.46;97684.20;;;;108964;1269;41684;-63
2022/11/07 12:22:28;;;;;;;;;;;;;35.00;97684.20;;;;108689;1270;41155;-63
2022/11/07 12:25:06;;;;;;;;;;;;;35.46;97684.80;;;;108966;1270;41998;-63
2022/11/07 12:27:34;;;;;;;;;;;;;35.80;97684.60;;;;108952;1266;41173;-62
2022/11/07 12:30:04;;;;;;;;;;;;;35.70;97681.60;;;;108734;1270;41931;-63
2022/11/07 12:32:48;;;;;;;;;;;;;35.70;97686.40;;;;108733;1259;41245;-63
2022/11/07 12:35:28;;;;;;;;;;;;;35.90;97685.00;;;;108714;1265;42519;-63
2022/11/07 12:38:02;;;;;;;;;;;;;36.04;97675.60;;;;108743;1266;42625;-63
2022/11/07 12:40:33;;;;;;;;;;;;;36.20;97676.20;;;;108745;1269;41934;-63
2022/11/07 12:43:08;;;;;;;;;;;;;36.50;97677.00;;;;108709;1271;42591;-63
2022/11/07 12:45:43;;;;;;;;;;;;;36.50;97674.20;;;;108724;1270;41253;-63
2022/11/07 12:48:16;;;;;;;;;;;;;36.48;97674.40;;;;108716;1271;41475;-63
2022/11/07 12:50:47;;;;;;;;;;;;;36.40;97667.40;;;;108718;1271;41132;-63
2022/11/07 12:53:25;;;;;;;;;;;;;36.50;97668.20;;;;108752;1270;41158;-63
2022/11/07 12:55:58;;;;;;;;;;;;;36.30;97669.00;;;;108871;1269;41250;-63
2022/11/07 12:58:30;;;;;;;;;;;;;36.40;97668.00;;;;108924;1270;41145;-63
2022/11/07 13:00:59;;;;;;;;;;;;;36.50;97665.40;;;;108960;1271;41154;-64
2022/11/07 13:03:43;;;;;;;;;;;;;36.40;97663.20;;;;108888;1271;41160;-65
2022/11/07 13:06:32;;;;;;;;;;;;;36.40;97665.00;;;;108746;1268;41162;-62
2022/11/07 13:09:19;;;;;;;;;;;;;36.50;97663.00;;;;108851;1262;41300;-63
2022/11/07 13:11:51;;;;;;;;;;;;;36.50;97666.00;;;;108676;1271;41149;-62
2022/11/07 13:14:31;;;;;;;;;;;;;36.44;97665.40;;;;108720;1271;41151;-62
2022/11/07 13:17:00;;;;;;;;;;;;;36.28;97667.00;;;;108747;1271;41139;-62
2022/11/07 13:19:32;;;;;;;;;;;;;35.76;97669.40;;;;108684;1271;41247;-62
2022/11/07 13:22:04;;;;;;;;;;;;;35.30;97674.40;;;;108686;1270;41242;-62
2022/11/07 13:24:36;;;;;;;;;;;;;34.62;97676.40;;;;108890;1269;41157;-63
2022/11/07 13:27:14;;;;;;;;;;;;;33.78;97678.00;;;;108926;1270;41404;-63
2022/11/07 13:29:44;;;;;;;;;;;;;32.66;97677.80;;;;108940;1271;41257;-63
2022/11/07 13:32:13;;;;;;;;;;;;;31.70;97678.20;;;;108935;1266;41240;-63
2022/11/07 13:34:41;;;;;;;;;;;;;30.82;97682.00;;;;108724;1266;41575;-63
2022/11/07 13:37:20;;;;;;;;;;;;;30.08;97682.80;;;;108755;1266;41323;-63
2022/11/07 13:39:50;;;;;;;;;;;;;29.32;97681.40;;;;108852;1266;41497;-63
2022/11/07 13:42:18;;;;;;;;;;;;;28.72;97678.40;;;;108775;1263;41229;-62
2022/11/07 13:44:51;;;;;;;;;;;;;28.18;97676.60;;;;108924;1266;41932;-63
2022/11/07 13:47:25;;;;;;;;;;;;;27.74;97675.20;;;;108960;1270;41938;-62
2022/11/07 13:49:55;;;;;;;;;;;;;27.40;97679.20;;;;108767;1265;41877;-62
2022/11/07 13:52:45;;;;;;;;;;;;;27.06;97672.80;;;;108747;1270;42513;-62
2022/11/07 13:55:15;;;;;;;;;;;;;26.64;97675.80;;;;108715;1271;41229;-62
2022/11/07 13:57:45;;;;;;;;;;;;;26.26;97674.40;;;;108786;1270;41145;-62
2022/11/07 14:00:14;;;;;;;;;;;;;25.94;97678.00;;;;108985;1270;41950;-62
2022/11/07 14:02:52;;;;;;;;;;;;;25.68;97677.80;;;;108994;1270;42502;-62
2022/11/07 14:05:22;;;;;;;;;;;;;25.36;97676.40;;;;108988;1271;41152;-62
2022/11/07 14:07:56;;;;;;;;;;;;;25.10;97679.80;;;;108981;1266;41476;-62
2022/11/07 14:10:46;;;;;;;;;;;;;24.94;97681.20;;;;108942;1269;41149;-61